sensor_id;sensor_type;location;lat;lon;timestamp;pressure;altitude;pressure_sealevel;temperature;humidity
3250;BME280;1637;42.020;23.992;2022-11-22T00:00:59;92059.28;;;4.53;100.00
3250;BME280;1637;42.020;23.992;2022-11-22T00:03:26;92066.47;;;4.77;100.00
3250;BME280;1637;42.020;23.992;2022-11-22T00:05:54;92067.19;;;4.89;100.00
3250;BME280;1637;42.020;23.992;2022-11-22T00:08:21;92065.66;;;4.95;100.00
3250;BME280;1637;42.020;23.992;2022-11-22T00:10:48;92051.69;;;4.73;100.00
3250;BME280;1637;42.020;23.992;2022-11-22T00:13:15;92099.78;;;4.93;100.00
3250;BME280;1637;42.020;23.992;2022-11-22T00:15:42;92060.38;;;4.80;100.00
3250;BME280;1637;42.020;23.992;2022-11-22T00:18:09;92074.44;;;4.45;100.00
3250;BME280;1637;42.020;23.992;2022-11-22T00:20:36;92053.25;;;4.35;100.00
3250;BME280;1637;42.020;23.992;2022-11-22T00:23:04;91996.41;;;3.65;100.00
3250;BME280;1637;42.020;23.992;2022-11-22T00:25:31;92028.19;;;3.65;100.00
3250;BME280;1637;42.020;23.992;2022-11-22T00:27:58;92077.38;;;3.62;100.00
3250;BME280;1637;42.020;23.992;2022-11-22T00:30:24;92085.91;;;3.20;100.00
3250;BME280;1637;42.020;23.992;2022-11-22T00:32:51;92085.00;;;2.88;100.00
3250;BME280;1637;42.020;23.992;2022-11-22T00:35:18;92084.75;;;3.10;100.00
3250;BME280;1637;42.020;23.992;2022-11-22T00:37:45;92086.59;;;3.06;100.00
3250;BME280;1637;42.020;23.992;2022-11-22T00:40:14;92097.09;;;2.89;100.00
3250;BME280;1637;42.020;23.992;2022-11-22T00:42:41;92100.75;;;3.42;100.00
3250;BME280;1637;42.020;23.992;2022-11-22T00:45:08;92040.88;;;3.13;100.00
3250;BME280;1637;42.020;23.992;2022-11-22T00:47:35;92099.56;;;3.29;100.00
3250;BME280;1637;42.020;23.992;2022-11-22T00:50:02;92115.47;;;3.40;100.00
3250;BME280;1637;42.020;23.992;2022-11-22T00:52:29;92104.25;;;3.75;100.00
3250;BME280;1637;42.020;23.992;2022-11-22T00:54:56;92102.03;;;3.98;100.00
3250;BME280;1637;42.020;23.992;2022-11-22T00:57:24;92105.09;;;4.07;100.00
3250;BME280;1637;42.020;23.992;2022-11-22T00:59:51;92107.00;;;4.32;100.00
3250;BME280;1637;42.020;23.992;2022-11-22T01:02:18;92113.06;;;4.32;100.00
3250;BME280;1637;42.020;23.992;2022-11-22T01:04:45;92114.53;;;3.91;100.00
3250;BME280;1637;42.020;23.992;2022-11-22T01:07:12;92080.09;;;4.08;100.00
3250;BME280;1637;42.020;23.992;2022-11-22T01:09:38;92102.81;;;4.20;100.00
3250;BME280;1637;42.020;23.992;2022-11-22T01:12:06;92108.53;;;4.29;100.00
3250;BME280;1637;42.020;23.992;2022-11-22T01:14:34;92104.34;;;4.07;100.00
3250;BME280;1637;42.020;23.992;2022-11-22T01:17:01;92109.16;;;3.69;100.00
3250;BME280;1637;42.020;23.992;2022-11-22T01:19:27;92115.84;;;3.31;100.00
3250;BME280;1637;42.020;23.992;2022-11-22T01:21:54;92111.97;;;3.18;100.00
3250;BME280;1637;42.020;23.992;2022-11-22T01:24:21;92100.47;;;2.86;100.00
3250;BME280;1637;42.020;23.992;2022-11-22T01:26:48;92107.47;;;3.22;100.00
3250;BME280;1637;42.020;23.992;2022-11-22T01:29:15;92104.91;;;3.43;100.00
3250;BME280;1637;42.020;23.992;2022-11-22T01:31:43;92111.78;;;3.59;100.00
3250;BME280;1637;42.020;23.992;2022-11-22T01:34:10;92100.03;;;3.49;100.00
3250;BME280;1637;42.020;23.992;2022-11-22T01:36:36;92104.25;;;3.75;100.00
3250;BME280;1637;42.020;23.992;2022-11-22T01:39:03;92092.47;;;3.55;100.00
3250;BME280;1637;42.020;23.992;2022-11-22T01:41:30;92101.53;;;3.54;100.00
3250;BME280;1637;42.020;23.992;2022-11-22T01:43:57;92105.00;;;3.75;100.00
3250;BME280;1637;42.020;23.992;2022-11-22T01:46:29;92106.91;;;3.82;100.00
3250;BME280;1637;42.020;23.992;2022-11-22T01:49:02;92109.94;;;3.77;100.00
3250;BME280;1637;42.020;23.992;2022-11-22T01:51:34;92090.22;;;3.53;100.00
3250;BME280;1637;42.020;23.992;2022-11-22T01:54:06;92104.78;;;3.19;100.00
3250;BME280;1637;42.020;23.992;2022-11-22T01:56:36;92106.78;;;3.43;100.00
3250;BME280;1637;42.020;23.992;2022-11-22T01:59:07;92103.66;;;3.16;100.00
3250;BME280;1637;42.020;23.992;2022-11-22T02:01:35;92112.66;;;3.01;100.00
3250;BME280;1637;42.020;23.992;2022-11-22T02:04:05;92114.59;;;3.15;100.00
3250;BME280;1637;42.020;23.992;2022-11-22T02:06:40;92117.09;;;2.86;100.00
3250;BME280;1637;42.020;23.992;2022-11-22T02:09:11;92112.59;;;2.90;100.00
3250;BME280;1637;42.020;23.992;2022-11-22T02:11:42;92109.81;;;2.69;100.00
3250;BME280;1637;42.020;23.992;2022-11-22T02:14:12;92118.19;;;2.82;100.00
3250;BME280;1637;42.020;23.992;2022-11-22T02:16:41;92119.84;;;3.04;100.00
3250;BME280;1637;42.020;23.992;2022-11-22T02:19:13;92115.78;;;3.21;100.00
3250;BME280;1637;42.020;23.992;2022-11-22T02:21:42;92115.38;;;3.19;100.00
3250;BME280;1637;42.020;23.992;2022-11-22T02:24:15;92119.94;;;3.22;100.00
3250;BME280;1637;42.020;23.992;2022-11-22T02:26:45;92118.47;;;3.28;100.00
3250;BME280;1637;42.020;23.992;2022-11-22T02:29:12;92118.06;;;3.22;100.00
3250;BME280;1637;42.020;23.992;2022-11-22T02:31:41;92132.72;;;3.09;100.00
3250;BME280;1637;42.020;23.992;2022-11-22T02:34:08;92134.41;;;3.42;100.00
3250;BME280;1637;42.020;23.992;2022-11-22T02:36:42;92133.47;;;3.06;100.00
3250;BME280;1637;42.020;23.992;2022-11-22T02:39:11;92146.81;;;3.27;100.00
3250;BME280;1637;42.020;23.992;2022-11-22T02:41:39;92137.91;;;2.95;100.00
3250;BME280;1637;42.020;23.992;2022-11-22T02:44:08;92134.56;;;2.50;100.00
3250;BME280;1637;42.020;23.992;2022-11-22T02:46:45;92127.47;;;2.58;100.00
3250;BME280;1637;42.020;23.992;2022-11-22T02:49:15;92127.94;;;2.67;100.00
3250;BME280;1637;42.020;23.992;2022-11-22T02:51:42;92127.16;;;2.66;100.00
3250;BME280;1637;42.020;23.992;2022-11-22T02:54:09;92131.75;;;2.76;100.00
3250;BME280;1637;42.020;23.992;2022-11-22T02:56:35;92140.16;;;2.38;100.00
3250;BME280;1637;42.020;23.992;2022-11-22T02:59:02;92138.78;;;2.11;100.00
3250;BME280;1637;42.020;23.992;2022-11-22T03:01:30;92142.72;;;2.27;100.00
3250;BME280;1637;42.020;23.992;2022-11-22T03:03:57;92135.84;;;2.19;100.00
3250;BME280;1637;42.020;23.992;2022-11-22T03:06:24;92139.69;;;2.29;100.00
3250;BME280;1637;42.020;23.992;2022-11-22T03:08:51;92134.28;;;2.15;100.00
3250;BME280;1637;42.020;23.992;2022-11-22T03:11:18;92134.78;;;2.27;100.00
3250;BME280;1637;42.020;23.992;2022-11-22T03:13:44;92136.88;;;2.08;100.00
3250;BME280;1637;42.020;23.992;2022-11-22T03:16:11;92132.44;;;2.19;100.00
3250;BME280;1637;42.020;23.992;2022-11-22T03:18:39;92133.75;;;1.98;100.00
3250;BME280;1637;42.020;23.992;2022-11-22T03:21:09;92136.31;;;1.91;100.00
3250;BME280;1637;42.020;23.992;2022-11-22T03:23:36;92139.63;;;1.81;100.00
3250;BME280;1637;42.020;23.992;2022-11-22T03:26:06;92149.00;;;2.16;100.00
3250;BME280;1637;42.020;23.992;2022-11-22T03:28:33;92144.88;;;2.18;100.00
3250;BME280;1637;42.020;23.992;2022-11-22T03:31:00;92142.31;;;1.51;100.00
3250;BME280;1637;42.020;23.992;2022-11-22T03:33:27;92147.06;;;1.38;100.00
3250;BME280;1637;42.020;23.992;2022-11-22T03:35:55;92154.75;;;1.51;100.00
3250;BME280;1637;42.020;23.992;2022-11-22T03:38:23;92152.25;;;1.31;100.00
3250;BME280;1637;42.020;23.992;2022-11-22T03:40:49;92161.47;;;1.78;100.00
3250;BME280;1637;42.020;23.992;2022-11-22T03:43:16;92160.63;;;2.04;100.00
3250;BME280;1637;42.020;23.992;2022-11-22T03:45:44;92165.63;;;2.16;100.00
3250;BME280;1637;42.020;23.992;2022-11-22T03:48:10;92177.34;;;2.19;100.00
3250;BME280;1637;42.020;23.992;2022-11-22T03:50:37;92177.13;;;2.34;100.00
3250;BME280;1637;42.020;23.992;2022-11-22T03:53:06;92176.81;;;2.43;100.00
3250;BME280;1637;42.020;23.992;2022-11-22T03:55:33;92177.06;;;2.27;100.00
3250;BME280;1637;42.020;23.992;2022-11-22T03:57:59;92175.75;;;2.48;100.00
3250;BME280;1637;42.020;23.992;2022-11-22T04:00:26;92172.72;;;2.49;100.00
3250;BME280;1637;42.020;23.992;2022-11-22T04:02:53;92163.44;;;1.88;100.00
3250;BME280;1637;42.020;23.992;2022-11-22T04:05:20;92159.94;;;2.14;100.00
3250;BME280;1637;42.020;23.992;2022-11-22T04:07:47;92177.28;;;2.12;100.00
3250;BME280;1637;42.020;23.992;2022-11-22T04:10:16;92162.22;;;1.79;100.00
3250;BME280;1637;42.020;23.992;2022-11-22T04:12:43;92182.09;;;1.69;100.00
3250;BME280;1637;42.020;23.992;2022-11-22T04:15:10;92187.66;;;1.30;100.00
3250;BME280;1637;42.020;23.992;2022-11-22T04:17:37;92194.16;;;1.36;100.00
3250;BME280;1637;42.020;23.992;2022-11-22T04:20:11;92200.66;;;1.43;100.00
3250;BME280;1637;42.020;23.992;2022-11-22T04:22:56;92201.59;;;1.31;100.00
3250;BME280;1637;42.020;23.992;2022-11-22T04:25:26;92193.34;;;1.06;100.00
3250;BME280;1637;42.020;23.992;2022-11-22T04:27:52;92200.47;;;1.02;100.00
3250;BME280;1637;42.020;23.992;2022-11-22T04:30:19;92193.28;;;0.99;100.00
3250;BME280;1637;42.020;23.992;2022-11-22T04:32:46;92204.63;;;1.03;100.00
3250;BME280;1637;42.020;23.992;2022-11-22T04:35:13;92217.25;;;1.43;100.00
3250;BME280;1637;42.020;23.992;2022-11-22T04:37:40;92225.03;;;0.83;100.00
3250;BME280;1637;42.020;23.992;2022-11-22T04:40:08;92223.84;;;1.60;100.00
3250;BME280;1637;42.020;23.992;2022-11-22T04:42:37;92236.16;;;1.79;100.00
3250;BME280;1637;42.020;23.992;2022-11-22T04:45:21;92226.78;;;1.25;100.00
3250;BME280;1637;42.020;23.992;2022-11-22T04:47:48;92241.50;;;0.99;100.00
3250;BME280;1637;42.020;23.992;2022-11-22T04:50:24;92249.41;;;1.82;100.00
3250;BME280;1637;42.020;23.992;2022-11-22T04:53:09;92254.34;;;1.87;100.00
3250;BME280;1637;42.020;23.992;2022-11-22T04:55:36;92247.47;;;1.49;100.00
3250;BME280;1637;42.020;23.992;2022-11-22T04:58:04;92243.28;;;1.18;100.00
3250;BME280;1637;42.020;23.992;2022-11-22T05:00:32;92246.97;;;1.14;100.00
3250;BME280;1637;42.020;23.992;2022-11-22T05:02:59;92247.31;;;1.65;100.00
3250;BME280;1637;42.020;23.992;2022-11-22T05:05:26;92247.19;;;1.58;100.00
3250;BME280;1637;42.020;23.992;2022-11-22T05:07:53;92239.00;;;1.36;100.00
3250;BME280;1637;42.020;23.992;2022-11-22T05:10:20;92242.88;;;1.46;100.00
3250;BME280;1637;42.020;23.992;2022-11-22T05:12:47;92225.16;;;1.17;100.00
3250;BME280;1637;42.020;23.992;2022-11-22T05:15:15;92254.00;;;1.06;100.00
3250;BME280;1637;42.020;23.992;2022-11-22T05:17:42;92252.03;;;1.26;100.00
3250;BME280;1637;42.020;23.992;2022-11-22T05:20:09;92260.78;;;1.03;100.00
3250;BME280;1637;42.020;23.992;2022-11-22T05:22:36;92266.97;;;0.92;100.00
3250;BME280;1637;42.020;23.992;2022-11-22T05:25:21;92274.66;;;1.00;100.00
3250;BME280;1637;42.020;23.992;2022-11-22T05:27:51;92294.66;;;1.05;100.00
3250;BME280;1637;42.020;23.992;2022-11-22T05:30:20;92280.09;;;0.88;100.00
3250;BME280;1637;42.020;23.992;2022-11-22T05:32:47;92290.22;;;0.86;100.00
3250;BME280;1637;42.020;23.992;2022-11-22T05:35:14;92286.44;;;0.61;100.00
3250;BME280;1637;42.020;23.992;2022-11-22T05:37:41;92232.97;;;2.33;100.00
3250;BME280;1637;42.020;23.992;2022-11-22T05:40:09;92286.19;;;3.09;100.00
3250;BME280;1637;42.020;23.992;2022-11-22T05:42:36;92285.97;;;3.90;100.00
3250;BME280;1637;42.020;23.992;2022-11-22T05:45:03;92275.00;;;2.86;100.00
3250;BME280;1637;42.020;23.992;2022-11-22T05:47:33;92272.88;;;1.91;100.00
3250;BME280;1637;42.020;23.992;2022-11-22T05:50:00;92268.16;;;0.94;100.00
3250;BME280;1637;42.020;23.992;2022-11-22T05:52:27;92274.94;;;0.95;100.00
3250;BME280;1637;42.020;23.992;2022-11-22T05:54:54;92285.09;;;0.93;100.00
3250;BME280;1637;42.020;23.992;2022-11-22T05:57:21;92290.88;;;1.29;100.00
3250;BME280;1637;42.020;23.992;2022-11-22T05:59:48;92304.25;;;1.66;100.00
3250;BME280;1637;42.020;23.992;2022-11-22T06:02:15;92307.28;;;2.28;100.00
3250;BME280;1637;42.020;23.992;2022-11-22T06:04:43;92309.00;;;3.28;96.69
3250;BME280;1637;42.020;23.992;2022-11-22T06:07:10;92318.16;;;3.41;91.16
3250;BME280;1637;42.020;23.992;2022-11-22T06:09:36;92327.97;;;3.95;90.40
3250;BME280;1637;42.020;23.992;2022-11-22T06:12:03;92328.78;;;5.25;83.92
3250;BME280;1637;42.020;23.992;2022-11-22T06:14:30;92333.94;;;4.58;83.29
3250;BME280;1637;42.020;23.992;2022-11-22T06:16:57;92329.97;;;4.12;83.91
3250;BME280;1637;42.020;23.992;2022-11-22T06:19:24;92335.69;;;4.22;85.31
3250;BME280;1637;42.020;23.992;2022-11-22T06:21:52;92351.00;;;4.57;81.91
3250;BME280;1637;42.020;23.992;2022-11-22T06:24:19;92357.38;;;3.72;84.45
3250;BME280;1637;42.020;23.992;2022-11-22T06:26:46;92355.47;;;2.51;91.67
3250;BME280;1637;42.020;23.992;2022-11-22T06:29:12;92344.72;;;2.03;95.98
3250;BME280;1637;42.020;23.992;2022-11-22T06:31:39;92347.13;;;1.86;99.83
3250;BME280;1637;42.020;23.992;2022-11-22T06:34:06;92361.69;;;3.03;98.25
3250;BME280;1637;42.020;23.992;2022-11-22T06:36:34;92363.16;;;4.65;89.03
3250;BME280;1637;42.020;23.992;2022-11-22T06:39:02;92376.47;;;6.67;78.80
3250;BME280;1637;42.020;23.992;2022-11-22T06:41:31;92383.56;;;7.02;76.13
3250;BME280;1637;42.020;23.992;2022-11-22T06:43:58;92380.81;;;8.95;69.16
3250;BME280;1637;42.020;23.992;2022-11-22T06:46:26;92353.19;;;9.62;64.08
3250;BME280;1637;42.020;23.992;2022-11-22T06:48:52;92390.66;;;10.79;61.43
3250;BME280;1637;42.020;23.992;2022-11-22T06:51:21;92400.56;;;11.58;58.50
3250;BME280;1637;42.020;23.992;2022-11-22T06:53:48;92377.69;;;11.69;56.92
3250;BME280;1637;42.020;23.992;2022-11-22T06:56:18;92392.75;;;12.32;56.29
3250;BME280;1637;42.020;23.992;2022-11-22T06:58:46;92395.75;;;11.49;58.50
3250;BME280;1637;42.020;23.992;2022-11-22T07:01:14;92400.81;;;11.27;59.35
3250;BME280;1637;42.020;23.992;2022-11-22T07:03:42;92387.19;;;11.38;59.63
3250;BME280;1637;42.020;23.992;2022-11-22T07:06:11;92403.44;;;12.19;57.09
3250;BME280;1637;42.020;23.992;2022-11-22T07:08:38;92395.19;;;12.43;56.25
3250;BME280;1637;42.020;23.992;2022-11-22T07:11:07;92397.53;;;12.08;56.43
3250;BME280;1637;42.020;23.992;2022-11-22T07:13:36;92384.44;;;12.26;55.60
3250;BME280;1637;42.020;23.992;2022-11-22T07:16:05;92380.63;;;11.59;58.26
3250;BME280;1637;42.020;23.992;2022-11-22T07:18:33;92364.69;;;12.49;54.58
3250;BME280;1637;42.020;23.992;2022-11-22T07:21:00;92340.09;;;12.67;53.93
3250;BME280;1637;42.020;23.992;2022-11-22T07:23:28;92373.63;;;13.33;52.89
3250;BME280;1637;42.020;23.992;2022-11-22T07:25:55;92371.84;;;14.06;50.54
3250;BME280;1637;42.020;23.992;2022-11-22T07:28:24;92379.72;;;15.38;47.09
3250;BME280;1637;42.020;23.992;2022-11-22T07:30:57;92372.06;;;14.59;49.60
3250;BME280;1637;42.020;23.992;2022-11-22T07:33:24;92367.09;;;14.70;48.79
3250;BME280;1637;42.020;23.992;2022-11-22T07:35:51;92316.78;;;13.94;50.71
3250;BME280;1637;42.020;23.992;2022-11-22T07:38:19;92368.13;;;15.29;48.68
3250;BME280;1637;42.020;23.992;2022-11-22T07:40:46;92364.53;;;15.54;48.05
3250;BME280;1637;42.020;23.992;2022-11-22T07:43:14;92364.41;;;13.85;51.50
3250;BME280;1637;42.020;23.992;2022-11-22T07:45:41;92359.88;;;13.15;53.12
3250;BME280;1637;42.020;23.992;2022-11-22T07:48:09;92355.16;;;13.60;52.32
3250;BME280;1637;42.020;23.992;2022-11-22T07:50:39;92355.69;;;14.66;49.34
3250;BME280;1637;42.020;23.992;2022-11-22T07:53:06;92352.09;;;15.87;47.39
3250;BME280;1637;42.020;23.992;2022-11-22T07:55:34;92338.41;;;15.72;46.55
3250;BME280;1637;42.020;23.992;2022-11-22T07:58:01;92329.13;;;13.03;52.16
3250;BME280;1637;42.020;23.992;2022-11-22T08:00:28;92302.84;;;10.04;59.97
3250;BME280;1637;42.020;23.992;2022-11-22T08:02:56;92311.72;;;7.95;68.21
3250;BME280;1637;42.020;23.992;2022-11-22T08:05:25;92313.34;;;7.34;70.86
3250;BME280;1637;42.020;23.992;2022-11-22T08:07:52;92306.28;;;7.09;73.32
3250;BME280;1637;42.020;23.992;2022-11-22T08:10:20;92292.69;;;6.97;74.71
3250;BME280;1637;42.020;23.992;2022-11-22T08:12:47;92298.38;;;6.95;75.36
3250;BME280;1637;42.020;23.992;2022-11-22T08:15:15;92298.72;;;7.04;75.20
3250;BME280;1637;42.020;23.992;2022-11-22T08:17:42;92294.06;;;7.19;74.15
3250;BME280;1637;42.020;23.992;2022-11-22T08:20:09;92295.97;;;7.15;74.33
3250;BME280;1637;42.020;23.992;2022-11-22T08:22:39;92293.56;;;7.31;74.63
3250;BME280;1637;42.020;23.992;2022-11-22T08:25:07;92288.56;;;7.44;75.76
3250;BME280;1637;42.020;23.992;2022-11-22T08:27:37;92296.78;;;7.64;75.63
3250;BME280;1637;42.020;23.992;2022-11-22T08:30:05;92303.78;;;8.25;73.88
3250;BME280;1637;42.020;23.992;2022-11-22T08:32:32;92295.06;;;8.89;74.28
3250;BME280;1637;42.020;23.992;2022-11-22T08:34:59;92298.13;;;11.30;64.84
3250;BME280;1637;42.020;23.992;2022-11-22T08:37:26;92297.84;;;12.38;60.91
3250;BME280;1637;42.020;23.992;2022-11-22T08:39:54;92306.63;;;13.09;59.29
3250;BME280;1637;42.020;23.992;2022-11-22T08:42:22;92293.75;;;13.93;55.74
3250;BME280;1637;42.020;23.992;2022-11-22T08:44:48;92285.91;;;14.68;54.06
3250;BME280;1637;42.020;23.992;2022-11-22T08:47:15;92277.16;;;12.93;56.71
3250;BME280;1637;42.020;23.992;2022-11-22T08:49:42;92275.09;;;11.65;61.24
3250;BME280;1637;42.020;23.992;2022-11-22T08:52:09;92235.44;;;9.46;66.96
3250;BME280;1637;42.020;23.992;2022-11-22T08:54:36;92261.59;;;10.64;66.62
3250;BME280;1637;42.020;23.992;2022-11-22T08:57:04;92271.16;;;11.54;62.59
3250;BME280;1637;42.020;23.992;2022-11-22T08:59:31;92269.75;;;10.97;63.66
3250;BME280;1637;42.020;23.992;2022-11-22T09:01:58;92270.00;;;10.47;65.99
3250;BME280;1637;42.020;23.992;2022-11-22T09:04:25;92263.13;;;10.26;68.03
3250;BME280;1637;42.020;23.992;2022-11-22T09:06:52;92265.97;;;10.39;67.61
3250;BME280;1637;42.020;23.992;2022-11-22T09:09:18;92263.81;;;10.50;68.32
3250;BME280;1637;42.020;23.992;2022-11-22T09:11:45;92249.50;;;9.74;70.08
3250;BME280;1637;42.020;23.992;2022-11-22T09:14:13;92248.88;;;10.09;69.71
3250;BME280;1637;42.020;23.992;2022-11-22T09:16:40;92251.28;;;11.51;65.19
3250;BME280;1637;42.020;23.992;2022-11-22T09:19:07;92248.25;;;11.98;63.01
3250;BME280;1637;42.020;23.992;2022-11-22T09:21:34;92249.91;;;12.24;59.76
3250;BME280;1637;42.020;23.992;2022-11-22T09:24:01;92253.03;;;11.90;60.82
3250;BME280;1637;42.020;23.992;2022-11-22T09:26:28;92249.25;;;11.23;63.19
3250;BME280;1637;42.020;23.992;2022-11-22T09:28:55;92245.22;;;10.98;64.94
3250;BME280;1637;42.020;23.992;2022-11-22T09:31:23;92244.50;;;11.30;64.76
3250;BME280;1637;42.020;23.992;2022-11-22T09:33:51;92239.47;;;11.32;65.06
3250;BME280;1637;42.020;23.992;2022-11-22T09:36:19;92243.41;;;12.51;60.94
3250;BME280;1637;42.020;23.992;2022-11-22T09:38:47;92237.09;;;12.57;59.43
3250;BME280;1637;42.020;23.992;2022-11-22T09:41:22;92240.63;;;13.08;57.66
3250;BME280;1637;42.020;23.992;2022-11-22T09:44:00;92234.91;;;12.39;58.86
3250;BME280;1637;42.020;23.992;2022-11-22T09:46:39;92210.06;;;11.29;61.99
3250;BME280;1637;42.020;23.992;2022-11-22T09:49:28;92211.06;;;10.66;64.85
3250;BME280;1637;42.020;23.992;2022-11-22T09:52:02;92214.28;;;10.78;65.92
3250;BME280;1637;42.020;23.992;2022-11-22T09:54:38;92199.84;;;10.36;64.83
3250;BME280;1637;42.020;23.992;2022-11-22T09:57:12;92208.31;;;10.70;63.34
3250;BME280;1637;42.020;23.992;2022-11-22T09:59:44;92217.00;;;11.91;62.49
3250;BME280;1637;42.020;23.992;2022-11-22T10:02:18;92208.13;;;12.36;60.35
3250;BME280;1637;42.020;23.992;2022-11-22T10:04:52;92210.31;;;13.21;57.02
3250;BME280;1637;42.020;23.992;2022-11-22T10:07:24;92209.41;;;12.73;55.60
3250;BME280;1637;42.020;23.992;2022-11-22T10:10:00;92207.59;;;12.83;48.64
3250;BME280;1637;42.020;23.992;2022-11-22T10:12:34;92202.44;;;13.14;42.48
3250;BME280;1637;42.020;23.992;2022-11-22T10:15:07;92182.25;;;13.09;42.59
3250;BME280;1637;42.020;23.992;2022-11-22T10:17:47;92187.91;;;12.73;43.11
3250;BME280;1637;42.020;23.992;2022-11-22T10:20:18;92184.16;;;13.34;44.15
3250;BME280;1637;42.020;23.992;2022-11-22T10:22:45;92188.00;;;13.58;42.65
3250;BME280;1637;42.020;23.992;2022-11-22T10:25:15;92180.50;;;13.40;44.01
3250;BME280;1637;42.020;23.992;2022-11-22T10:27:44;92186.66;;;14.10;44.87
3250;BME280;1637;42.020;23.992;2022-11-22T10:30:15;92185.56;;;14.42;45.28
3250;BME280;1637;42.020;23.992;2022-11-22T10:32:51;92175.56;;;13.73;44.06
3250;BME280;1637;42.020;23.992;2022-11-22T10:35:27;92185.03;;;13.91;44.57
3250;BME280;1637;42.020;23.992;2022-11-22T10:38:03;92179.78;;;14.09;43.94
3250;BME280;1637;42.020;23.992;2022-11-22T10:40:37;92162.22;;;13.83;43.40
3250;BME280;1637;42.020;23.992;2022-11-22T10:43:26;92168.78;;;13.82;42.65
3250;BME280;1637;42.020;23.992;2022-11-22T10:46:02;92160.03;;;13.56;43.49
3250;BME280;1637;42.020;23.992;2022-11-22T10:48:40;92159.84;;;13.37;44.21
3250;BME280;1637;42.020;23.992;2022-11-22T10:51:16;92156.78;;;13.61;47.61
3250;BME280;1637;42.020;23.992;2022-11-22T10:53:52;92149.94;;;13.47;44.71
3250;BME280;1637;42.020;23.992;2022-11-22T10:56:25;92149.53;;;14.05;44.39
3250;BME280;1637;42.020;23.992;2022-11-22T10:59:03;92156.53;;;14.24;43.87
3250;BME280;1637;42.020;23.992;2022-11-22T11:01:41;92148.38;;;13.71;43.58
3250;BME280;1637;42.020;23.992;2022-11-22T11:04:12;92147.69;;;14.02;45.10
3250;BME280;1637;42.020;23.992;2022-11-22T11:06:44;92138.31;;;13.50;45.46
3250;BME280;1637;42.020;23.992;2022-11-22T11:09:16;92127.94;;;13.61;46.07
3250;BME280;1637;42.020;23.992;2022-11-22T11:11:46;92134.91;;;13.93;45.29
3250;BME280;1637;42.020;23.992;2022-11-22T11:14:23;92132.53;;;14.17;43.80
3250;BME280;1637;42.020;23.992;2022-11-22T11:16:52;92130.28;;;14.16;43.58
3250;BME280;1637;42.020;23.992;2022-11-22T11:19:22;92132.63;;;14.26;44.64
3250;BME280;1637;42.020;23.992;2022-11-22T11:21:56;92128.34;;;14.16;45.15
3250;BME280;1637;42.020;23.992;2022-11-22T11:24:27;92120.47;;;14.00;44.61
3250;BME280;1637;42.020;23.992;2022-11-22T11:26:56;92115.16;;;13.53;44.08
3250;BME280;1637;42.020;23.992;2022-11-22T11:29:33;92107.69;;;13.69;41.52
3250;BME280;1637;42.020;23.992;2022-11-22T11:32:10;92094.91;;;13.61;40.75
3250;BME280;1637;42.020;23.992;2022-11-22T11:34:41;92088.56;;;13.55;38.96
3250;BME280;1637;42.020;23.992;2022-11-22T11:37:17;92092.72;;;13.68;41.00
3250;BME280;1637;42.020;23.992;2022-11-22T11:39:45;92093.72;;;13.62;39.45
3250;BME280;1637;42.020;23.992;2022-11-22T11:42:25;92078.75;;;13.61;40.17
3250;BME280;1637;42.020;23.992;2022-11-22T11:44:53;92085.97;;;13.86;39.02
3250;BME280;1637;42.020;23.992;2022-11-22T11:47:31;92087.56;;;14.27;40.01
3250;BME280;1637;42.020;23.992;2022-11-22T11:50:00;92088.97;;;14.09;41.63
3250;BME280;1637;42.020;23.992;2022-11-22T11:52:27;92087.97;;;13.94;40.99
3250;BME280;1637;42.020;23.992;2022-11-22T11:54:58;92105.44;;;13.68;39.93
3250;BME280;1637;42.020;23.992;2022-11-22T11:57:27;92103.59;;;13.65;40.71
3250;BME280;1637;42.020;23.992;2022-11-22T11:59:56;92112.59;;;13.49;41.08
3250;BME280;1637;42.020;23.992;2022-11-22T12:02:28;92110.19;;;13.51;41.69
3250;BME280;1637;42.020;23.992;2022-11-22T12:05:01;92100.56;;;13.41;41.51
3250;BME280;1637;42.020;23.992;2022-11-22T12:07:38;92105.84;;;13.32;43.31
3250;BME280;1637;42.020;23.992;2022-11-22T12:10:31;92121.59;;;13.21;43.52
3250;BME280;1637;42.020;23.992;2022-11-22T12:13:03;92097.38;;;12.95;43.97
3250;BME280;1637;42.020;23.992;2022-11-22T12:15:40;92115.44;;;12.95;44.72
3250;BME280;1637;42.020;23.992;2022-11-22T12:18:24;92101.69;;;12.93;46.07
3250;BME280;1637;42.020;23.992;2022-11-22T12:21:01;92086.63;;;12.95;45.91
3250;BME280;1637;42.020;23.992;2022-11-22T12:23:34;92079.09;;;13.03;46.30
3250;BME280;1637;42.020;23.992;2022-11-22T12:26:04;92066.22;;;12.98;46.92
3250;BME280;1637;42.020;23.992;2022-11-22T12:28:31;92059.59;;;13.12;48.60
3250;BME280;1637;42.020;23.992;2022-11-22T12:31:00;92049.47;;;12.81;48.99
3250;BME280;1637;42.020;23.992;2022-11-22T12:33:33;92048.41;;;12.53;50.02
3250;BME280;1637;42.020;23.992;2022-11-22T12:36:08;92041.66;;;12.61;49.84
3250;BME280;1637;42.020;23.992;2022-11-22T12:38:39;92034.59;;;12.89;50.01
3250;BME280;1637;42.020;23.992;2022-11-22T12:41:10;92044.63;;;12.76;50.36
3250;BME280;1637;42.020;23.992;2022-11-22T12:43:43;92054.31;;;12.73;50.55
3250;BME280;1637;42.020;23.992;2022-11-22T12:46:15;92030.91;;;12.49;52.13
3250;BME280;1637;42.020;23.992;2022-11-22T12:48:45;92031.31;;;12.09;53.92
3250;BME280;1637;42.020;23.992;2022-11-22T12:51:23;92016.91;;;11.90;56.04
3250;BME280;1637;42.020;23.992;2022-11-22T12:53:55;92017.91;;;11.67;56.35
3250;BME280;1637;42.020;23.992;2022-11-22T12:56:27;92018.00;;;11.64;56.72
3250;BME280;1637;42.020;23.992;2022-11-22T12:59:00;92025.50;;;11.56;57.67
3250;BME280;1637;42.020;23.992;2022-11-22T13:01:31;92028.72;;;11.51;57.07
3250;BME280;1637;42.020;23.992;2022-11-22T13:04:09;92037.25;;;11.46;57.82
3250;BME280;1637;42.020;23.992;2022-11-22T13:06:44;92044.75;;;11.39;58.55
3250;BME280;1637;42.020;23.992;2022-11-22T13:09:17;92057.63;;;11.44;58.66
3250;BME280;1637;42.020;23.992;2022-11-22T13:11:49;92051.38;;;11.34;59.57
3250;BME280;1637;42.020;23.992;2022-11-22T13:14:22;92048.00;;;11.17;60.49
3250;BME280;1637;42.020;23.992;2022-11-22T13:16:52;92064.34;;;11.07;62.21
3250;BME280;1637;42.020;23.992;2022-11-22T13:19:22;92070.41;;;10.78;63.34
3250;BME280;1637;42.020;23.992;2022-11-22T13:22:02;92079.59;;;10.77;63.08
3250;BME280;1637;42.020;23.992;2022-11-22T13:24:40;92095.75;;;10.74;63.47